Kezdőlap
METAR-TAF:

METAR-TAF

Repülőterek :

légibázis

Tulln an der Donau, Ausztria

földrajzi szélesség: 48-19N, földrajzi hosszúság: 016-07E, magasság: 175 m

METAR: hiányzik

Idő: 23:28 (22:28 UTC)

Előrejelzés

A jelentés 14 órával és 13 perccel ezelõtt készült, 08:15 UTC
Az előrejelzés 16-én 09 óra UTC és 16-én 18 óra UTC között érvényes
Különbözõ irányokból fújó szél 3 kt
Látótávolság: 0500 m
Szórványos felhőzet 200 lábon
Szakadozott felhőzet 6000 lábon
zúzmarás köd
16-én 10 óra UTC és 16-én 12 óra UTC között fokozatosan kialakuló
Keleti szél 6 kt
Látótávolság 10 km, vagy több
Szórványos felhőzet 5000 lábon

TAF: LOXT 160815Z 1609/1618 VRB03KT 0500 FZFG SCT002 BKN060 BECMG 1610/1612 08006KT 9999 SCT050

Meteorológiai megfigyelések és előrejelzések több, mint 4000 repülőtéren (METAR és TAF jelentéseket).

A térképen piros és sárga pontok jelzik az elérhető meteorológiai állomásokat.

Mozgassa az egeret a pont fölött, hogy megjelenjen az állomás neve.

Azután kattintson az időjárási megfigyelések és előrejelzések megtekintéséhez.

A térkép megváltoztatása: kattintson a fekete keresztel jelölt zöld gombra ráközelítéshez, a vonallal jelölt zöld gombra távolításhoz, vagy a zöld nyilakra a szomszédos térképek eléréséhez.


METAR-TAF: